Sayre, OK (73662)

11:00 AM CDT on March 23, 2017 (GMT -0500)
Keahey farms | | Change Station
Active Advisory: Wind Advisory

Elev 1982 ft 35.25 °N, 99.79 °W | Updated 5 seconds ago

Mostly Cloudy
Mostly Cloudy
69.1 °F
Feels Like 69.1 °F
N
7.6
Wind Variable Wind from SSE
Gusts 9.8 mph

Today
High -- | Low -- °F
--% Chance of Precip.
Yesterday
High -- | Low -- °F
Precip. -- in
Pressure 29.85 in
Visibility 10.0 miles
Clouds Mostly Cloudy 1600 ft
Dew Point 18 °F
Humidity 14%
Rainfall 0.00 in
Snow Depth Not available.
7:37 AM 7:53 PM
Waning Crescent, 22% visible
METAR KCSM 231553Z 18024G33KT 10SM BKN016 20/15 A2990 RMK AO2 PK WND 18034/1537 SLP108 T02000150
Pressure 29.85 in
Visibility 10.0 miles
Clouds Mostly Cloudy 1600 ft
Dew Point 18 °F
Humidity 14%
Rainfall 0.00 in
Snow Depth Not available.
7:37 AM 7:53 PM
Waning Crescent, 22% visible
METAR KCSM 231553Z 18024G33KT 10SM BKN016 20/15 A2990 RMK AO2 PK WND 18034/1537 SLP108 T02000150

Get Your Daily Forecast Email!

Thanks for signing up!

Be on the lookout for a verification email in your inbox.

You'll start receiving severe weather alerts in your inbox..

×

10-Day Weather Forecast

Almanac

Astronomy

Mar. 23, 2017 Rise Set
Actual Time
Civil Twilight
Nautical Twilight
Astronomical Twilight
Moon
Length of Visible Light
Length of Day
Tomorrow will be .
, % of the Moon is Illuminated

Today's Extremes

State Highs State Lows

Community

WunderPhotos

Upload Photos

1,962,540 photos uploaded!

WunderBlog® & News

Nearby

Air Quality

  Air Quality AQ Index Pollutant
Not available.

Snow Depth

Station Depth Elevation

Earthquake Activity

City Distance Mag. Time & Date
Minimum magnitude displayed is 2.5.

Earthquake Activity

City Distance Mag. Time & Date
Minimum magnitude displayed is 2.5.

Coastal Water Temperatures

Place Temperature

Stations

Nearby Weather Stations

Station Location Temp. Windchill Dew Point Humidity Wind Precip. Elev Updated Type
                   

Watches & Warnings

Wind Advisory
Issued: 4:07 AM CDT Mar. 23, 2017 – National Weather Service

... Wind Advisory now in effect from noon today to midnight CDT
tonight...

* timing... noon until 8 PM.

* Winds... 30 to 35 mph. Gusts 45 to 50 mph.

Precautionary/preparedness actions...

A Wind Advisory means that sustained winds greater than 30 mph
are expected. Winds this strong can make driving difficult,
especially for high profile vehicles. Use extra caution.